Ephratah, New York
Current Conditions -  °F | °C
As of 2:55 PM on Sunday 23 Nov 2014 (Local Time) from KNY0 Reporting Station
Overcast Overcast  
Wind Chill: 43°   Ceiling: 8500
Heat Index: 46°   Visibility: 10mi
Dew Point: 39°   Wind: 5mph
Humidity: 79%   Direction: 110°ESE
Pressure: 30.05"   Gusts: NA
Location:  42.9271°N, 74.711°W
Report Text: KNY0 231955Z AUTO 11004KT 10SM OVC085 08/04 A3005 RMK AO2 T00760041
Loading
Personal Weather Stations






























Interactive Weather Map New forecast layout! Learn more

10-Day Weather Forecast

Advertisements
Track Severe Weather on mobile